PWSweather.com
Personal Weather Stations
Station Observations
KOHCLEVE171
Cleveland, OH

Cleveland, OH

Lat: 41.48646164, Lon: -81.46408081

Elevation: 1059

Station Type:

Latest ConditionsUpdated 9:09:00 PM EDT Monday, Mar 25, 2019
Currently Today's Max Today's Min Today's Average
Temperature 32.0°F0.0°C 45.0°F7.2°C 32.0°F0.0°C 38.0°F3.3°C
Dew Point 19.2°F-7.1°C 39.6°F4.2°C 5.0°F-15.0°C 25.1°F-3.8°C
Winds 1.6 mph N2.6 kmh N 8.5 mph -13.7 kmh - - 3.6 mph 5.8 kmh
Wind Gusts 2.0 mph3.2 kmh 15.0 mph24.1 kmh - -
Humidity 59% 83% 25% 63%
Pressure 30.27 in1025.1 mb 30.27 in1025.1 mb 30.09 in1019.0 mb -
Hour Temp Dew Point Humidity Winds Wind Gusts Pressure Precip Precip Rate Daily Precip Total
09:09 PM 32.0°F0.0°C 19.2°F-7.1°C 59% 1.6 mph N2.6 kmh N 2.0 mph3.2 kmh 30.27 in1025.1 mb 0.00 in0.0 mm 0.00 in0.0 mm 0.00 in0.0 mm
09:04 PM 32.2°F0.1°C 18.7°F-7.4°C 57% 3.1 mph N5.0 kmh N 4.7 mph7.6 kmh 30.26 in1024.7 mb 0.00 in0.0 mm 0.00 in0.0 mm 0.00 in0.0 mm
08:59 PM 32.4°F0.2°C 18.0°F-7.8°C 55% 2.5 mph NNE4.0 kmh NNE 3.8 mph6.1 kmh 30.26 in1024.7 mb 0.00 in0.0 mm 0.00 in0.0 mm 0.00 in0.0 mm
08:54 PM 32.5°F0.3°C 16.9°F-8.4°C 52% 4.0 mph NNE6.4 kmh NNE 6.7 mph10.8 kmh 30.26 in1024.7 mb 0.00 in0.0 mm 0.00 in0.0 mm 0.00 in0.0 mm
08:49 PM 32.9°F0.5°C 16.3°F-8.7°C 50% 3.4 mph N5.5 kmh N 5.1 mph8.2 kmh 30.25 in1024.4 mb 0.00 in0.0 mm 0.00 in0.0 mm 0.00 in0.0 mm
08:44 PM 33.3°F0.7°C 14.7°F-9.6°C 46% 4.5 mph N7.2 kmh N 9.2 mph14.8 kmh 30.25 in1024.4 mb 0.00 in0.0 mm 0.00 in0.0 mm 0.00 in0.0 mm
08:39 PM 33.4°F0.8°C 12.7°F-10.7°C 42% 3.1 mph N5.0 kmh N 4.9 mph7.9 kmh 30.24 in1024.0 mb 0.00 in0.0 mm 0.00 in0.0 mm 0.00 in0.0 mm
08:34 PM 33.8°F1.0°C 10.9°F-11.7°C 38% 4.0 mph N6.4 kmh N 5.1 mph8.2 kmh 30.24 in1024.0 mb 0.00 in0.0 mm 0.00 in0.0 mm 0.00 in0.0 mm
08:29 PM 34.0°F1.1°C 11.7°F-11.3°C 39% 2.2 mph N3.5 kmh N 4.0 mph6.4 kmh 30.24 in1024.0 mb 0.00 in0.0 mm 0.00 in0.0 mm 0.00 in0.0 mm
08:24 PM 34.3°F1.3°C 11.3°F-11.5°C 38% 2.7 mph N4.3 kmh N 4.3 mph6.9 kmh 30.24 in1024.0 mb 0.00 in0.0 mm 0.00 in0.0 mm 0.00 in0.0 mm
08:19 PM 34.5°F1.4°C 10.2°F-12.1°C 36% 3.6 mph NE5.8 kmh NE 6.5 mph10.5 kmh 30.23 in1023.7 mb 0.00 in0.0 mm 0.00 in0.0 mm 0.00 in0.0 mm
08:14 PM 34.7°F1.5°C 10.4°F-12.0°C 36% 3.4 mph NNE5.5 kmh NNE 5.4 mph8.7 kmh 30.23 in1023.7 mb 0.00 in0.0 mm 0.00 in0.0 mm 0.00 in0.0 mm
08:09 PM 34.7°F1.5°C 10.4°F-12.0°C 36% 1.8 mph 2.9 kmh 2.7 mph4.3 kmh 30.23 in1023.7 mb 0.00 in0.0 mm 0.00 in0.0 mm 0.00 in0.0 mm
08:04 PM 34.9°F1.6°C 10.0°F-12.2°C 35% 2.5 mph NE4.0 kmh NE 3.8 mph6.1 kmh 30.23 in1023.7 mb 0.00 in0.0 mm 0.00 in0.0 mm 0.00 in0.0 mm
07:59 PM 35.1°F1.7°C 10.2°F-12.1°C 35% 3.4 mph NE5.5 kmh NE 5.4 mph8.7 kmh 30.23 in1023.7 mb 0.00 in0.0 mm 0.00 in0.0 mm 0.00 in0.0 mm
07:54 PM 35.1°F1.7°C 10.2°F-12.1°C 35% 4.0 mph NNE6.4 kmh NNE 7.4 mph11.9 kmh 30.23 in1023.7 mb 0.00 in0.0 mm 0.00 in0.0 mm 0.00 in0.0 mm
07:49 PM 35.2°F1.8°C 9.7°F-12.4°C 34% 4.3 mph NNE6.9 kmh NNE 6.3 mph10.1 kmh 30.23 in1023.7 mb 0.00 in0.0 mm 0.00 in0.0 mm 0.00 in0.0 mm
07:44 PM 35.4°F1.9°C 10.4°F-12.0°C 35% 2.9 mph NNE4.7 kmh NNE 4.3 mph6.9 kmh 30.22 in1023.4 mb 0.00 in0.0 mm 0.00 in0.0 mm 0.00 in0.0 mm
07:39 PM 35.4°F1.9°C 9.9°F-12.3°C 34% 4.7 mph NNE7.6 kmh NNE 8.3 mph13.4 kmh 30.22 in1023.4 mb 0.00 in0.0 mm 0.00 in0.0 mm 0.00 in0.0 mm
07:34 PM 35.6°F2.0°C 10.0°F-12.2°C 34% 2.9 mph NE4.7 kmh NE 4.0 mph6.4 kmh 30.22 in1023.4 mb 0.00 in0.0 mm 0.00 in0.0 mm 0.00 in0.0 mm
07:29 PM 35.6°F2.0°C 9.3°F-12.6°C 33% 4.9 mph N7.9 kmh N 5.8 mph9.3 kmh 30.22 in1023.4 mb 0.00 in0.0 mm 0.00 in0.0 mm 0.00 in0.0 mm
07:24 PM 35.8°F2.1°C 10.0°F-12.2°C 34% 4.3 mph NNE6.9 kmh NNE 6.3 mph10.1 kmh 30.22 in1023.4 mb 0.00 in0.0 mm 0.00 in0.0 mm 0.00 in0.0 mm
07:19 PM 36.0°F2.2°C 9.7°F-12.4°C 33% 6.5 mph NNE10.5 kmh NNE 9.4 mph15.1 kmh 30.22 in1023.4 mb 0.00 in0.0 mm 0.00 in0.0 mm 0.00 in0.0 mm
07:14 PM 36.1°F2.3°C 8.4°F-13.1°C 31% 7.2 mph N11.6 kmh N 10.5 mph16.9 kmh 30.22 in1023.4 mb 0.00 in0.0 mm 0.00 in0.0 mm 0.00 in0.0 mm
07:09 PM 36.3°F2.4°C 9.9°F-12.3°C 33% 5.4 mph NE8.7 kmh NE 10.3 mph16.6 kmh 30.22 in1023.4 mb 0.00 in0.0 mm 0.00 in0.0 mm 0.00 in0.0 mm
07:04 PM 36.3°F2.4°C 8.6°F-13.0°C 31% 5.8 mph N9.3 kmh N 11.0 mph17.7 kmh 30.22 in1023.4 mb 0.00 in0.0 mm 0.00 in0.0 mm 0.00 in0.0 mm
06:59 PM 36.5°F2.5°C 10.0°F-12.2°C 33% 4.3 mph N6.9 kmh N 6.7 mph10.8 kmh 30.21 in1023.0 mb 0.00 in0.0 mm 0.00 in0.0 mm 0.00 in0.0 mm
06:54 PM 36.7°F2.6°C 8.8°F-12.9°C 31% 7.2 mph N11.6 kmh N 12.5 mph20.1 kmh 30.21 in1023.0 mb 0.00 in0.0 mm 0.00 in0.0 mm 0.00 in0.0 mm
06:49 PM 36.7°F2.6°C 8.8°F-12.9°C 31% 6.9 mph NNE11.1 kmh NNE 10.3 mph16.6 kmh 30.21 in1023.0 mb 0.00 in0.0 mm 0.00 in0.0 mm 0.00 in0.0 mm
06:44 PM 36.9°F2.7°C 9.0°F-12.8°C 31% 5.8 mph N9.3 kmh N 8.1 mph13.0 kmh 30.21 in1023.0 mb 0.00 in0.0 mm 0.00 in0.0 mm 0.00 in0.0 mm
06:39 PM 36.9°F2.7°C 9.0°F-12.8°C 31% 6.5 mph NNE10.5 kmh NNE 9.8 mph15.8 kmh 30.20 in1022.7 mb 0.00 in0.0 mm 0.00 in0.0 mm 0.00 in0.0 mm
06:34 PM 37.0°F2.8°C 8.4°F-13.1°C 30% 4.5 mph NE7.2 kmh NE 8.3 mph13.4 kmh 30.20 in1022.7 mb 0.00 in0.0 mm 0.00 in0.0 mm 0.00 in0.0 mm
06:29 PM 37.2°F2.9°C 8.6°F-13.0°C 30% 6.5 mph NNE10.5 kmh NNE 11.0 mph17.7 kmh 30.20 in1022.7 mb 0.00 in0.0 mm 0.00 in0.0 mm 0.00 in0.0 mm
06:24 PM 37.2°F2.9°C 8.6°F-13.0°C 30% 6.9 mph NNE11.1 kmh NNE 11.2 mph18.0 kmh 30.20 in1022.7 mb 0.00 in0.0 mm 0.00 in0.0 mm 0.00 in0.0 mm
06:19 PM 37.4°F3.0°C 8.8°F-12.9°C 30% 7.8 mph N12.6 kmh N 13.2 mph21.2 kmh 30.19 in1022.4 mb 0.00 in0.0 mm 0.00 in0.0 mm 0.00 in0.0 mm
06:14 PM 37.4°F3.0°C 8.8°F-12.9°C 30% 8.5 mph N13.7 kmh N 15.0 mph24.1 kmh 30.19 in1022.4 mb 0.00 in0.0 mm 0.00 in0.0 mm 0.00 in0.0 mm
06:09 PM 37.6°F3.1°C 9.0°F-12.8°C 30% 7.6 mph N12.2 kmh N 11.2 mph18.0 kmh 30.20 in1022.7 mb 0.00 in0.0 mm 0.00 in0.0 mm 0.00 in0.0 mm
06:04 PM 37.4°F3.0°C 8.1°F-13.3°C 29% 6.9 mph NE11.1 kmh NE 10.5 mph16.9 kmh 30.19 in1022.4 mb 0.00 in0.0 mm 0.00 in0.0 mm 0.00 in0.0 mm
05:59 PM 37.6°F3.1°C 8.2°F-13.2°C 29% 7.6 mph N12.2 kmh N 11.4 mph18.3 kmh 30.19 in1022.4 mb 0.00 in0.0 mm 0.00 in0.0 mm 0.00 in0.0 mm
05:54 PM 37.8°F3.2°C 7.5°F-13.6°C 28% 8.1 mph N13.0 kmh N 13.0 mph20.9 kmh 30.19 in1022.4 mb 0.00 in0.0 mm 0.00 in0.0 mm 0.00 in0.0 mm
05:49 PM 37.8°F3.2°C 5.9°F-14.5°C 26% 8.3 mph N13.4 kmh N 11.9 mph19.2 kmh 30.19 in1022.4 mb 0.00 in0.0 mm 0.00 in0.0 mm 0.00 in0.0 mm
05:44 PM 37.9°F3.3°C 5.2°F-14.9°C 25% 5.8 mph NE9.3 kmh NE 12.5 mph20.1 kmh 30.19 in1022.4 mb 0.00 in0.0 mm 0.00 in0.0 mm 0.00 in0.0 mm
05:38 PM 37.9°F3.3°C 6.1°F-14.4°C 26% 3.8 mph NE6.1 kmh NE 5.8 mph9.3 kmh 30.19 in1022.4 mb 0.00 in0.0 mm 0.00 in0.0 mm 0.00 in0.0 mm
05:33 PM 37.8°F3.2°C 5.0°F-15.0°C 25% 5.8 mph NNE9.3 kmh NNE 10.7 mph17.2 kmh 30.19 in1022.4 mb 0.00 in0.0 mm 0.00 in0.0 mm 0.00 in0.0 mm
05:28 PM 37.8°F3.2°C 5.0°F-15.0°C 25% 7.4 mph N11.9 kmh N 11.4 mph18.3 kmh 30.19 in1022.4 mb 0.00 in0.0 mm 0.00 in0.0 mm 0.00 in0.0 mm
05:23 PM 37.8°F3.2°C 5.0°F-15.0°C 25% 5.4 mph NNE8.7 kmh NNE 9.8 mph15.8 kmh 30.19 in1022.4 mb 0.00 in0.0 mm 0.00 in0.0 mm 0.00 in0.0 mm
05:18 PM 38.1°F3.4°C 7.9°F-13.4°C 28% 7.6 mph N12.2 kmh N 12.8 mph20.6 kmh 30.19 in1022.4 mb 0.00 in0.0 mm 0.00 in0.0 mm 0.00 in0.0 mm
05:13 PM 37.9°F3.3°C 8.4°F-13.1°C 29% 4.7 mph NNE7.6 kmh NNE 6.0 mph9.7 kmh 30.19 in1022.4 mb 0.00 in0.0 mm 0.00 in0.0 mm 0.00 in0.0 mm
05:07 PM 37.8°F3.2°C 9.1°F-12.7°C 30% 4.9 mph NNE7.9 kmh NNE 7.2 mph11.6 kmh 30.19 in1022.4 mb 0.00 in0.0 mm 0.00 in0.0 mm 0.00 in0.0 mm
04:52 PM 37.9°F3.3°C 7.0°F-13.9°C 27% 7.4 mph N11.9 kmh N 12.5 mph20.1 kmh 30.19 in1022.4 mb 0.00 in0.0 mm 0.00 in0.0 mm 0.00 in0.0 mm
04:35 PM 38.3°F3.5°C 5.5°F-14.7°C 25% 4.5 mph N7.2 kmh N 9.8 mph15.8 kmh 30.19 in1022.4 mb 0.00 in0.0 mm 0.00 in0.0 mm 0.00 in0.0 mm
04:11 PM 39.0°F3.9°C 11.7°F-11.3°C 32% 7.8 mph NE12.6 kmh NE 11.9 mph19.2 kmh 30.19 in1022.4 mb 0.00 in0.0 mm 0.00 in0.0 mm 0.00 in0.0 mm
03:52 PM 39.4°F4.1°C 14.5°F-9.7°C 36% 6.3 mph NNE10.1 kmh NNE 11.0 mph17.7 kmh 30.19 in1022.4 mb 0.00 in0.0 mm 0.00 in0.0 mm 0.00 in0.0 mm
03:32 PM 39.6°F4.2°C 15.4°F-9.2°C 37% 6.7 mph N10.8 kmh N 9.4 mph15.1 kmh 30.19 in1022.4 mb 0.00 in0.0 mm 0.00 in0.0 mm 0.00 in0.0 mm
03:13 PM 40.3°F4.6°C 17.8°F-7.9°C 40% 7.4 mph N11.9 kmh N 14.1 mph22.7 kmh 30.19 in1022.4 mb 0.00 in0.0 mm 0.00 in0.0 mm 0.00 in0.0 mm
02:54 PM 40.6°F4.8°C 18.1°F-7.7°C 40% 5.6 mph N9.0 kmh N 7.6 mph12.2 kmh 30.19 in1022.4 mb 0.00 in0.0 mm 0.00 in0.0 mm 0.00 in0.0 mm
02:40 PM 41.2°F5.1°C 18.7°F-7.4°C 40% 6.3 mph N10.1 kmh N 10.1 mph16.3 kmh 30.18 in1022.0 mb 0.00 in0.0 mm 0.00 in0.0 mm 0.00 in0.0 mm
02:25 PM 41.5°F5.3°C 18.3°F-7.6°C 39% 5.8 mph N9.3 kmh N 8.1 mph13.0 kmh 30.18 in1022.0 mb 0.00 in0.0 mm 0.00 in0.0 mm 0.00 in0.0 mm
02:06 PM 41.9°F5.5°C 16.9°F-8.4°C 36% 6.5 mph NNW10.5 kmh NNW 8.7 mph14.0 kmh 30.18 in1022.0 mb 0.00 in0.0 mm 0.00 in0.0 mm 0.00 in0.0 mm
01:52 PM 41.5°F5.3°C 17.2°F-8.2°C 37% 5.4 mph NNE8.7 kmh NNE 10.3 mph16.6 kmh 30.19 in1022.4 mb 0.00 in0.0 mm 0.00 in0.0 mm 0.00 in0.0 mm
01:41 PM 41.5°F5.3°C 18.3°F-7.6°C 39% 8.3 mph 13.4 kmh 13.6 mph21.9 kmh 30.19 in1022.4 mb 0.00 in0.0 mm 0.00 in0.0 mm 0.00 in0.0 mm
01:27 PM 41.4°F5.2°C 19.4°F-7.0°C 41% 3.8 mph N6.1 kmh N 7.8 mph12.6 kmh 30.19 in1022.4 mb 0.00 in0.0 mm 0.00 in0.0 mm 0.00 in0.0 mm
01:08 PM 40.8°F4.9°C 21.0°F-6.1°C 45% 6.9 mph N11.1 kmh N 11.4 mph18.3 kmh 30.19 in1022.4 mb 0.00 in0.0 mm 0.00 in0.0 mm 0.00 in0.0 mm
12:58 PM 40.5°F4.7°C 23.4°F-4.8°C 50% 4.7 mph NNW7.6 kmh NNW 8.1 mph13.0 kmh 30.18 in1022.0 mb 0.00 in0.0 mm 0.00 in0.0 mm 0.00 in0.0 mm
12:48 PM 39.7°F4.3°C 23.0°F-5.0°C 51% 3.4 mph NE5.5 kmh NE 4.3 mph6.9 kmh 30.19 in1022.4 mb 0.00 in0.0 mm 0.00 in0.0 mm 0.00 in0.0 mm
12:38 PM 39.6°F4.2°C 23.4°F-4.8°C 52% 6.3 mph NNE10.1 kmh NNE 9.4 mph15.1 kmh 30.18 in1022.0 mb 0.00 in0.0 mm 0.00 in0.0 mm 0.00 in0.0 mm
12:29 PM 39.6°F4.2°C 24.8°F-4.0°C 55% 5.4 mph N8.7 kmh N 8.3 mph13.4 kmh 30.18 in1022.0 mb 0.00 in0.0 mm 0.00 in0.0 mm 0.00 in0.0 mm
12:19 PM 39.7°F4.3°C 25.3°F-3.7°C 56% 6.7 mph NNE10.8 kmh NNE 10.5 mph16.9 kmh 30.19 in1022.4 mb 0.00 in0.0 mm 0.00 in0.0 mm 0.00 in0.0 mm
12:09 PM 39.4°F4.1°C 26.2°F-3.2°C 59% 2.5 mph NNW4.0 kmh NNW 7.4 mph11.9 kmh 30.18 in1022.0 mb 0.00 in0.0 mm 0.00 in0.0 mm 0.00 in0.0 mm
11:59 AM 38.5°F3.6°C 25.9°F-3.4°C 60% 3.6 mph NNE5.8 kmh NNE 7.2 mph11.6 kmh 30.19 in1022.4 mb 0.00 in0.0 mm 0.00 in0.0 mm 0.00 in0.0 mm
11:49 AM 38.3°F3.5°C 25.7°F-3.5°C 60% 6.5 mph N10.5 kmh N 11.2 mph18.0 kmh 30.19 in1022.4 mb 0.00 in0.0 mm 0.00 in0.0 mm 0.00 in0.0 mm
11:40 AM 37.8°F3.2°C 25.9°F-3.4°C 62% 3.1 mph NE5.0 kmh NE 4.7 mph7.6 kmh 30.19 in1022.4 mb 0.00 in0.0 mm 0.00 in0.0 mm 0.00 in0.0 mm
11:30 AM 37.6°F3.1°C 26.4°F-3.1°C 64% 2.7 mph NE4.3 kmh NE 4.3 mph6.9 kmh 30.19 in1022.4 mb 0.00 in0.0 mm 0.00 in0.0 mm 0.00 in0.0 mm
11:20 AM 37.4°F3.0°C 26.4°F-3.1°C 64% 4.5 mph NNE7.2 kmh NNE 7.2 mph11.6 kmh 30.19 in1022.4 mb 0.00 in0.0 mm 0.00 in0.0 mm 0.00 in0.0 mm
11:10 AM 37.0°F2.8°C 26.4°F-3.1°C 65% 2.5 mph N4.0 kmh N 4.7 mph7.6 kmh 30.19 in1022.4 mb 0.00 in0.0 mm 0.00 in0.0 mm 0.00 in0.0 mm
11:01 AM 36.5°F2.5°C 26.6°F-3.0°C 67% 4.3 mph ESE6.9 kmh ESE 7.8 mph12.6 kmh 30.19 in1022.4 mb 0.00 in0.0 mm 0.00 in0.0 mm 0.00 in0.0 mm
10:51 AM 36.3°F2.4°C 27.5°F-2.5°C 70% 2.2 mph ENE3.5 kmh ENE 3.1 mph5.0 kmh 30.19 in1022.4 mb 0.00 in0.0 mm 0.00 in0.0 mm 0.00 in0.0 mm
10:40 AM 35.6°F2.0°C 26.8°F-2.9°C 70% 5.1 mph NNE8.2 kmh NNE 7.4 mph11.9 kmh 30.19 in1022.4 mb 0.00 in0.0 mm 0.00 in0.0 mm 0.00 in0.0 mm
10:31 AM 35.4°F1.9°C 27.0°F-2.8°C 71% 7.6 mph NNE12.2 kmh NNE 10.1 mph16.3 kmh 30.19 in1022.4 mb 0.00 in0.0 mm 0.00 in0.0 mm 0.00 in0.0 mm
10:20 AM 34.9°F1.6°C 26.8°F-2.9°C 72% 3.6 mph N5.8 kmh N 4.9 mph7.9 kmh 30.19 in1022.4 mb 0.00 in0.0 mm 0.00 in0.0 mm 0.00 in0.0 mm
10:11 AM 34.7°F1.5°C 27.0°F-2.8°C 73% 2.5 mph NE4.0 kmh NE 4.5 mph7.2 kmh 30.19 in1022.4 mb 0.00 in0.0 mm 0.00 in0.0 mm 0.00 in0.0 mm
10:01 AM 34.7°F1.5°C 27.5°F-2.5°C 75% 3.6 mph NE5.8 kmh NE 4.7 mph7.6 kmh 30.19 in1022.4 mb 0.00 in0.0 mm 0.00 in0.0 mm 0.00 in0.0 mm
09:52 AM 34.3°F1.3°C 27.5°F-2.5°C 76% 1.8 mph ENE2.9 kmh ENE 3.1 mph5.0 kmh 30.18 in1022.0 mb 0.00 in0.0 mm 0.00 in0.0 mm 0.00 in0.0 mm
09:46 AM 34.0°F1.1°C 27.5°F-2.5°C 77% 2.7 mph NE4.3 kmh NE 5.4 mph8.7 kmh 30.18 in1022.0 mb 0.00 in0.0 mm 0.00 in0.0 mm 0.00 in0.0 mm
09:36 AM 33.8°F1.0°C 27.3°F-2.6°C 77% 5.6 mph NNE9.0 kmh NNE 9.4 mph15.1 kmh 30.18 in1022.0 mb 0.00 in0.0 mm 0.00 in0.0 mm 0.00 in0.0 mm
09:26 AM 33.6°F0.9°C 27.5°F-2.5°C 78% 4.3 mph NNE6.9 kmh NNE 9.2 mph14.8 kmh 30.18 in1022.0 mb 0.00 in0.0 mm 0.00 in0.0 mm 0.00 in0.0 mm
09:17 AM 33.6°F0.9°C 27.5°F-2.5°C 78% 6.0 mph N9.7 kmh N 8.7 mph14.0 kmh 30.18 in1022.0 mb 0.00 in0.0 mm 0.00 in0.0 mm 0.00 in0.0 mm
09:12 AM 33.6°F0.9°C 27.5°F-2.5°C 78% 3.6 mph NNE5.8 kmh NNE 7.4 mph11.9 kmh 30.18 in1022.0 mb 0.00 in0.0 mm 0.00 in0.0 mm 0.00 in0.0 mm
09:07 AM 33.6°F0.9°C 27.5°F-2.5°C 78% 2.2 mph E3.5 kmh E 4.3 mph6.9 kmh 30.18 in1022.0 mb 0.00 in0.0 mm 0.00 in0.0 mm 0.00 in0.0 mm
09:02 AM 33.6°F0.9°C 27.5°F-2.5°C 78% 4.0 mph NE6.4 kmh NE 7.8 mph12.6 kmh 30.18 in1022.0 mb 0.00 in0.0 mm 0.00 in0.0 mm 0.00 in0.0 mm
08:57 AM 34.0°F1.1°C 28.4°F-2.0°C 80% 2.2 mph NE3.5 kmh NE 3.8 mph6.1 kmh 30.17 in1021.7 mb 0.00 in0.0 mm 0.00 in0.0 mm 0.00 in0.0 mm
08:49 AM 34.0°F1.1°C 28.4°F-2.0°C 80% 2.7 mph NNE4.3 kmh NNE 3.6 mph5.8 kmh 30.17 in1021.7 mb 0.00 in0.0 mm 0.00 in0.0 mm 0.00 in0.0 mm
08:44 AM 33.8°F1.0°C 28.2°F-2.1°C 80% 2.5 mph E4.0 kmh E 2.9 mph4.7 kmh 30.17 in1021.7 mb 0.00 in0.0 mm 0.00 in0.0 mm 0.00 in0.0 mm
08:39 AM 33.6°F0.9°C 28.0°F-2.2°C 80% 2.5 mph NE4.0 kmh NE 3.4 mph5.5 kmh 30.17 in1021.7 mb 0.00 in0.0 mm 0.00 in0.0 mm 0.00 in0.0 mm
08:34 AM 33.6°F0.9°C 28.0°F-2.2°C 80% 4.9 mph N7.9 kmh N 10.1 mph16.3 kmh 30.17 in1021.7 mb 0.00 in0.0 mm 0.00 in0.0 mm 0.00 in0.0 mm
08:29 AM 33.6°F0.9°C 28.0°F-2.2°C 80% 4.3 mph NE6.9 kmh NE 6.9 mph11.1 kmh 30.17 in1021.7 mb 0.00 in0.0 mm 0.00 in0.0 mm 0.00 in0.0 mm
08:24 AM 33.6°F0.9°C 28.0°F-2.2°C 80% 2.9 mph NE4.7 kmh NE 4.9 mph7.9 kmh 30.16 in1021.3 mb 0.00 in0.0 mm 0.00 in0.0 mm 0.00 in0.0 mm
08:19 AM 33.8°F1.0°C 28.6°F-1.9°C 81% 4.3 mph N6.9 kmh N 6.3 mph10.1 kmh 30.16 in1021.3 mb 0.00 in0.0 mm 0.00 in0.0 mm 0.00 in0.0 mm
08:14 AM 33.6°F0.9°C 28.0°F-2.2°C 80% 4.5 mph NE7.2 kmh NE 6.9 mph11.1 kmh 30.15 in1021.0 mb 0.00 in0.0 mm 0.00 in0.0 mm 0.00 in0.0 mm
08:09 AM 33.8°F1.0°C 28.2°F-2.1°C 80% 4.9 mph NNE7.9 kmh NNE 7.4 mph11.9 kmh 30.15 in1021.0 mb 0.00 in0.0 mm 0.00 in0.0 mm 0.00 in0.0 mm
08:04 AM 34.0°F1.1°C 28.4°F-2.0°C 80% 4.3 mph NNE6.9 kmh NNE 7.6 mph12.2 kmh 30.15 in1021.0 mb 0.00 in0.0 mm 0.00 in0.0 mm 0.00 in0.0 mm
07:59 AM 34.0°F1.1°C 28.4°F-2.0°C 80% 2.9 mph NE4.7 kmh NE 7.4 mph11.9 kmh 30.14 in1020.7 mb 0.00 in0.0 mm 0.00 in0.0 mm 0.00 in0.0 mm
07:54 AM 33.8°F1.0°C 28.2°F-2.1°C 80% 4.0 mph NNE6.4 kmh NNE 5.8 mph9.3 kmh 30.14 in1020.7 mb 0.00 in0.0 mm 0.00 in0.0 mm 0.00 in0.0 mm
07:49 AM 34.0°F1.1°C 27.9°F-2.3°C 78% 4.0 mph NE6.4 kmh NE 6.0 mph9.7 kmh 30.14 in1020.7 mb 0.00 in0.0 mm 0.00 in0.0 mm 0.00 in0.0 mm
07:44 AM 34.2°F1.2°C 28.0°F-2.2°C 78% 4.9 mph NNE7.9 kmh NNE 8.3 mph13.4 kmh 30.13 in1020.3 mb 0.00 in0.0 mm 0.00 in0.0 mm 0.00 in0.0 mm
07:39 AM 34.2°F1.2°C 28.0°F-2.2°C 78% 4.5 mph NNE7.2 kmh NNE 7.2 mph11.6 kmh 30.13 in1020.3 mb 0.00 in0.0 mm 0.00 in0.0 mm 0.00 in0.0 mm
07:34 AM 34.3°F1.3°C 28.2°F-2.1°C 78% 4.3 mph NNE6.9 kmh NNE 6.7 mph10.8 kmh 30.13 in1020.3 mb 0.00 in0.0 mm 0.00 in0.0 mm 0.00 in0.0 mm
07:29 AM 34.5°F1.4°C 28.4°F-2.0°C 78% 6.5 mph NNE10.5 kmh NNE 12.5 mph20.1 kmh 30.13 in1020.3 mb 0.00 in0.0 mm 0.00 in0.0 mm 0.00 in0.0 mm
07:24 AM 34.5°F1.4°C 28.4°F-2.0°C 78% 1.8 mph NE2.9 kmh NE 4.3 mph6.9 kmh 30.13 in1020.3 mb 0.00 in0.0 mm 0.00 in0.0 mm 0.00 in0.0 mm
07:19 AM 34.7°F1.5°C 28.2°F-2.1°C 77% 4.5 mph NE7.2 kmh NE 7.8 mph12.6 kmh 30.12 in1020.0 mb 0.00 in0.0 mm 0.00 in0.0 mm 0.00 in0.0 mm
07:14 AM 34.9°F1.6°C 28.4°F-2.0°C 77% 2.9 mph NE4.7 kmh NE 4.3 mph6.9 kmh 30.12 in1020.0 mb 0.00 in0.0 mm 0.00 in0.0 mm 0.00 in0.0 mm
07:09 AM 35.1°F1.7°C 28.6°F-1.9°C 77% 5.1 mph N8.2 kmh N 8.3 mph13.4 kmh 30.12 in1020.0 mb 0.00 in0.0 mm 0.00 in0.0 mm 0.00 in0.0 mm
07:04 AM 35.1°F1.7°C 28.6°F-1.9°C 77% 3.6 mph NNE5.8 kmh NNE 5.1 mph8.2 kmh 30.12 in1020.0 mb 0.00 in0.0 mm 0.00 in0.0 mm 0.00 in0.0 mm
06:59 AM 35.2°F1.8°C 28.8°F-1.8°C 77% 2.2 mph N3.5 kmh N 3.6 mph5.8 kmh 30.11 in1019.6 mb 0.00 in0.0 mm 0.00 in0.0 mm 0.00 in0.0 mm
06:54 AM 35.4°F1.9°C 28.9°F-1.7°C 77% 3.1 mph N5.0 kmh N 5.4 mph8.7 kmh 30.11 in1019.6 mb 0.00 in0.0 mm 0.00 in0.0 mm 0.00 in0.0 mm
06:49 AM 35.4°F1.9°C 28.9°F-1.7°C 77% 3.1 mph NNE5.0 kmh NNE 5.8 mph9.3 kmh 30.11 in1019.6 mb 0.00 in0.0 mm 0.00 in0.0 mm 0.00 in0.0 mm
06:44 AM 35.4°F1.9°C 28.9°F-1.7°C 77% 4.9 mph NNE7.9 kmh NNE 6.9 mph11.1 kmh 30.11 in1019.6 mb 0.00 in0.0 mm 0.00 in0.0 mm 0.00 in0.0 mm
06:39 AM 35.6°F2.0°C 29.1°F-1.6°C 77% 4.5 mph NE7.2 kmh NE 6.0 mph9.7 kmh 30.11 in1019.6 mb 0.00 in0.0 mm 0.00 in0.0 mm 0.00 in0.0 mm
06:34 AM 35.8°F2.1°C 29.3°F-1.5°C 77% 3.4 mph NNE5.5 kmh NNE 5.4 mph8.7 kmh 30.10 in1019.3 mb 0.00 in0.0 mm 0.00 in0.0 mm 0.00 in0.0 mm
06:29 AM 36.0°F2.2°C 29.8°F-1.2°C 78% 2.7 mph N4.3 kmh N 3.8 mph6.1 kmh 30.10 in1019.3 mb 0.00 in0.0 mm 0.00 in0.0 mm 0.00 in0.0 mm
06:24 AM 36.0°F2.2°C 29.5°F-1.4°C 77% 2.9 mph NE4.7 kmh NE 4.5 mph7.2 kmh 30.11 in1019.6 mb 0.00 in0.0 mm 0.00 in0.0 mm 0.00 in0.0 mm
06:19 AM 36.0°F2.2°C 29.8°F-1.2°C 78% 2.7 mph N4.3 kmh N 4.9 mph7.9 kmh 30.11 in1019.6 mb 0.00 in0.0 mm 0.00 in0.0 mm 0.00 in0.0 mm
06:14 AM 36.0°F2.2°C 30.4°F-0.9°C 80% 1.1 mph NE1.8 kmh NE 2.2 mph3.5 kmh 30.11 in1019.6 mb 0.00 in0.0 mm 0.00 in0.0 mm 0.00 in0.0 mm
06:09 AM 36.0°F2.2°C 30.4°F-0.9°C 80% 2.2 mph NNE3.5 kmh NNE 3.1 mph5.0 kmh 30.11 in1019.6 mb 0.00 in0.0 mm 0.00 in0.0 mm 0.00 in0.0 mm
06:04 AM 36.0°F2.2°C 30.4°F-0.9°C 80% 4.5 mph NNE7.2 kmh NNE 6.3 mph10.1 kmh 30.10 in1019.3 mb 0.00 in0.0 mm 0.00 in0.0 mm 0.00 in0.0 mm
05:59 AM 36.1°F2.3°C 30.6°F-0.8°C 80% 1.6 mph NE2.6 kmh NE 4.0 mph6.4 kmh 30.10 in1019.3 mb 0.00 in0.0 mm 0.00 in0.0 mm 0.00 in0.0 mm
05:54 AM 36.1°F2.3°C 30.0°F-1.1°C 78% 5.1 mph NNE8.2 kmh NNE 7.4 mph11.9 kmh 30.10 in1019.3 mb 0.00 in0.0 mm 0.00 in0.0 mm 0.00 in0.0 mm
05:49 AM 36.3°F2.4°C 30.2°F-1.0°C 78% 2.7 mph N4.3 kmh N 4.3 mph6.9 kmh 30.10 in1019.3 mb 0.00 in0.0 mm 0.00 in0.0 mm 0.00 in0.0 mm
05:44 AM 36.5°F2.5°C 30.4°F-0.9°C 78% 3.4 mph NNE5.5 kmh NNE 5.8 mph9.3 kmh 30.10 in1019.3 mb 0.00 in0.0 mm 0.00 in0.0 mm 0.00 in0.0 mm
05:39 AM 36.5°F2.5°C 30.4°F-0.9°C 78% 2.2 mph NNE3.5 kmh NNE 3.1 mph5.0 kmh 30.10 in1019.3 mb 0.00 in0.0 mm 0.00 in0.0 mm 0.00 in0.0 mm
05:34 AM 36.7°F2.6°C 30.4°F-0.9°C 78% 3.6 mph NNE5.8 kmh NNE 6.7 mph10.8 kmh 30.11 in1019.6 mb 0.00 in0.0 mm 0.00 in0.0 mm 0.00 in0.0 mm
05:29 AM 36.7°F2.6°C 30.4°F-0.9°C 78% 3.1 mph N5.0 kmh N 4.5 mph7.2 kmh 30.11 in1019.6 mb 0.00 in0.0 mm 0.00 in0.0 mm 0.00 in0.0 mm
05:24 AM 36.9°F2.7°C 30.6°F-0.8°C 78% 3.6 mph NNE5.8 kmh NNE 5.8 mph9.3 kmh 30.11 in1019.6 mb 0.00 in0.0 mm 0.00 in0.0 mm 0.00 in0.0 mm
05:19 AM 37.0°F2.8°C 30.6°F-0.8°C 77% 4.5 mph N7.2 kmh N 7.2 mph11.6 kmh 30.11 in1019.6 mb 0.00 in0.0 mm 0.00 in0.0 mm 0.00 in0.0 mm
05:14 AM 37.2°F2.9°C 30.7°F-0.7°C 77% 3.6 mph N5.8 kmh N 4.7 mph7.6 kmh 30.11 in1019.6 mb 0.00 in0.0 mm 0.00 in0.0 mm 0.00 in0.0 mm
05:09 AM 37.2°F2.9°C 30.7°F-0.7°C 77% 2.0 mph NNE3.2 kmh NNE 2.9 mph4.7 kmh 30.11 in1019.6 mb 0.00 in0.0 mm 0.00 in0.0 mm 0.00 in0.0 mm
05:04 AM 37.6°F3.1°C 30.7°F-0.7°C 76% 1.8 mph N2.9 kmh N 2.7 mph4.3 kmh 30.11 in1019.6 mb 0.00 in0.0 mm 0.00 in0.0 mm 0.00 in0.0 mm
04:59 AM 37.4°F3.0°C 30.6°F-0.8°C 76% 2.9 mph NNE4.7 kmh NNE 5.1 mph8.2 kmh 30.10 in1019.3 mb 0.00 in0.0 mm 0.00 in0.0 mm 0.00 in0.0 mm
04:54 AM 37.8°F3.2°C 30.9°F-0.6°C 76% 2.9 mph NNE4.7 kmh NNE 6.3 mph10.1 kmh 30.11 in1019.6 mb 0.00 in0.0 mm 0.00 in0.0 mm 0.00 in0.0 mm
04:49 AM 37.9°F3.3°C 31.1°F-0.5°C 76% 4.0 mph NNE6.4 kmh NNE 5.1 mph8.2 kmh 30.11 in1019.6 mb 0.00 in0.0 mm 0.00 in0.0 mm 0.00 in0.0 mm
04:44 AM 38.1°F3.4°C 31.3°F-0.4°C 76% 4.3 mph NNE6.9 kmh NNE 6.7 mph10.8 kmh 30.11 in1019.6 mb 0.00 in0.0 mm 0.00 in0.0 mm 0.00 in0.0 mm
04:39 AM 38.1°F3.4°C 31.3°F-0.4°C 76% 2.2 mph N3.5 kmh N 3.4 mph5.5 kmh 30.11 in1019.6 mb 0.00 in0.0 mm 0.00 in0.0 mm 0.00 in0.0 mm
04:34 AM 38.1°F3.4°C 31.3°F-0.4°C 76% 3.8 mph NE6.1 kmh NE 5.6 mph9.0 kmh 30.11 in1019.6 mb 0.00 in0.0 mm 0.00 in0.0 mm 0.00 in0.0 mm
04:29 AM 38.1°F3.4°C 31.3°F-0.4°C 76% 2.5 mph N4.0 kmh N 3.1 mph5.0 kmh 30.11 in1019.6 mb 0.00 in0.0 mm 0.00 in0.0 mm 0.00 in0.0 mm
04:24 AM 38.7°F3.7°C 31.8°F-0.1°C 76% 2.2 mph NNE3.5 kmh NNE 3.1 mph5.0 kmh 30.11 in1019.6 mb 0.00 in0.0 mm 0.00 in0.0 mm 0.00 in0.0 mm
04:19 AM 38.7°F3.7°C 31.8°F-0.1°C 76% 1.8 mph N2.9 kmh N 2.7 mph4.3 kmh 30.11 in1019.6 mb 0.00 in0.0 mm 0.00 in0.0 mm 0.00 in0.0 mm
04:14 AM 38.7°F3.7°C 32.0°F0.0°C 77% 2.0 mph NNW3.2 kmh NNW 3.1 mph5.0 kmh 30.11 in1019.6 mb 0.00 in0.0 mm 0.00 in0.0 mm 0.00 in0.0 mm
04:09 AM 38.8°F3.8°C 32.2°F0.1°C 77% 3.8 mph NNE6.1 kmh NNE 5.4 mph8.7 kmh 30.11 in1019.6 mb 0.00 in0.0 mm 0.00 in0.0 mm 0.00 in0.0 mm
04:04 AM 39.2°F4.0°C 32.5°F0.3°C 77% 2.0 mph N3.2 kmh N 3.4 mph5.5 kmh 30.11 in1019.6 mb 0.00 in0.0 mm 0.00 in0.0 mm 0.00 in0.0 mm
03:59 AM 39.6°F4.2°C 32.9°F0.5°C 77% 1.3 mph N2.1 kmh N 2.5 mph4.0 kmh 30.11 in1019.6 mb 0.00 in0.0 mm 0.00 in0.0 mm 0.00 in0.0 mm
03:54 AM 39.2°F4.0°C 32.5°F0.3°C 77% 2.9 mph NNE4.7 kmh NNE 4.3 mph6.9 kmh 30.11 in1019.6 mb 0.00 in0.0 mm 0.00 in0.0 mm 0.00 in0.0 mm
03:49 AM 39.4°F4.1°C 33.1°F0.6°C 78% 3.6 mph N5.8 kmh N 5.6 mph9.0 kmh 30.12 in1020.0 mb 0.00 in0.0 mm 0.00 in0.0 mm 0.00 in0.0 mm
03:44 AM 39.6°F4.2°C 33.3°F0.7°C 78% 1.6 mph N2.6 kmh N 2.9 mph4.7 kmh 30.12 in1020.0 mb 0.00 in0.0 mm 0.00 in0.0 mm 0.00 in0.0 mm
03:39 AM 39.6°F4.2°C 33.3°F0.7°C 78% 1.6 mph N2.6 kmh N 2.7 mph4.3 kmh 30.12 in1020.0 mb 0.00 in0.0 mm 0.00 in0.0 mm 0.00 in0.0 mm
03:34 AM 39.6°F4.2°C 34.0°F1.1°C 80% 1.6 mph NNW2.6 kmh NNW 3.4 mph5.5 kmh 30.12 in1020.0 mb 0.00 in0.0 mm 0.00 in0.0 mm 0.00 in0.0 mm
03:29 AM 39.6°F4.2°C 33.3°F0.7°C 78% 1.8 mph NNE2.9 kmh NNE 2.2 mph3.5 kmh 30.12 in1020.0 mb 0.00 in0.0 mm 0.00 in0.0 mm 0.00 in0.0 mm
03:24 AM 39.6°F4.2°C 33.3°F0.7°C 78% 2.9 mph NNW4.7 kmh NNW 4.7 mph7.6 kmh 30.12 in1020.0 mb 0.00 in0.0 mm 0.00 in0.0 mm 0.00 in0.0 mm
03:19 AM 39.9°F4.4°C 33.3°F0.7°C 77% 2.5 mph NNW4.0 kmh NNW 3.6 mph5.8 kmh 30.12 in1020.0 mb 0.00 in0.0 mm 0.00 in0.0 mm 0.00 in0.0 mm
03:14 AM 40.8°F4.9°C 34.2°F1.2°C 77% 3.6 mph N5.8 kmh N 6.0 mph9.7 kmh 30.12 in1020.0 mb 0.00 in0.0 mm 0.00 in0.0 mm 0.00 in0.0 mm
03:09 AM 41.0°F5.0°C 34.3°F1.3°C 77% 3.1 mph N5.0 kmh N 3.8 mph6.1 kmh 30.12 in1020.0 mb 0.00 in0.0 mm 0.00 in0.0 mm 0.00 in0.0 mm
03:04 AM 41.2°F5.1°C 34.5°F1.4°C 77% 4.7 mph N7.6 kmh N 5.6 mph9.0 kmh 30.12 in1020.0 mb 0.00 in0.0 mm 0.00 in0.0 mm 0.00 in0.0 mm
02:59 AM 41.9°F5.5°C 35.2°F1.8°C 77% 4.0 mph NNW6.4 kmh NNW 6.0 mph9.7 kmh 30.12 in1020.0 mb 0.00 in0.0 mm 0.00 in0.0 mm 0.00 in0.0 mm
02:54 AM 42.3°F5.7°C 35.6°F2.0°C 77% 3.4 mph N5.5 kmh N 5.6 mph9.0 kmh 30.12 in1020.0 mb 0.00 in0.0 mm 0.00 in0.0 mm 0.00 in0.0 mm
02:49 AM 42.4°F5.8°C 36.1°F2.3°C 78% 1.8 mph N2.9 kmh N 3.6 mph5.8 kmh 30.11 in1019.6 mb 0.00 in0.0 mm 0.00 in0.0 mm 0.00 in0.0 mm
02:44 AM 42.4°F5.8°C 36.1°F2.3°C 78% 2.0 mph N3.2 kmh N 2.7 mph4.3 kmh 30.11 in1019.6 mb 0.00 in0.0 mm 0.00 in0.0 mm 0.00 in0.0 mm
02:39 AM 42.8°F6.0°C 37.0°F2.8°C 80% 1.8 mph NNW2.9 kmh NNW 2.7 mph4.3 kmh 30.11 in1019.6 mb 0.00 in0.0 mm 0.00 in0.0 mm 0.00 in0.0 mm
02:34 AM 43.0°F6.1°C 37.2°F2.9°C 80% 2.5 mph N4.0 kmh N 3.1 mph5.0 kmh 30.11 in1019.6 mb 0.00 in0.0 mm 0.00 in0.0 mm 0.00 in0.0 mm
02:29 AM 43.3°F6.3°C 37.9°F3.3°C 81% 0.4 mph WSW0.6 kmh WSW 1.8 mph2.9 kmh 30.11 in1019.6 mb 0.00 in0.0 mm 0.00 in0.0 mm 0.00 in0.0 mm
02:24 AM 43.2°F6.2°C 37.8°F3.2°C 81% 0.7 mph NNW1.1 kmh NNW 4.7 mph7.6 kmh 30.11 in1019.6 mb 0.00 in0.0 mm 0.00 in0.0 mm 0.00 in0.0 mm
02:19 AM 43.2°F6.2°C 37.8°F3.2°C 81% Calm Calm -- 30.11 in1019.6 mb 0.00 in0.0 mm 0.00 in0.0 mm 0.00 in0.0 mm
02:14 AM 43.3°F6.3°C 37.9°F3.3°C 81% 0.4 mph N0.6 kmh N 1.1 mph1.8 kmh 30.11 in1019.6 mb 0.00 in0.0 mm 0.00 in0.0 mm 0.00 in0.0 mm
02:09 AM 43.2°F6.2°C 37.8°F3.2°C 81% Calm Calm -- 30.10 in1019.3 mb 0.00 in0.0 mm 0.00 in0.0 mm 0.00 in0.0 mm
02:04 AM 43.2°F6.2°C 37.8°F3.2°C 81% 1.8 mph NNW2.9 kmh NNW 2.5 mph4.0 kmh 30.10 in1019.3 mb 0.00 in0.0 mm 0.00 in0.0 mm 0.00 in0.0 mm
01:59 AM 43.3°F6.3°C 38.3°F3.5°C 82% 0.9 mph NNW1.4 kmh NNW 1.6 mph2.6 kmh 30.11 in1019.6 mb 0.00 in0.0 mm 0.00 in0.0 mm 0.00 in0.0 mm
01:54 AM 43.5°F6.4°C 38.5°F3.6°C 82% 2.9 mph NNW4.7 kmh NNW 4.3 mph6.9 kmh 30.11 in1019.6 mb 0.00 in0.0 mm 0.00 in0.0 mm 0.00 in0.0 mm
01:49 AM 43.7°F6.5°C 38.8°F3.8°C 83% 3.1 mph N5.0 kmh N 4.7 mph7.6 kmh 30.11 in1019.6 mb 0.00 in0.0 mm 0.00 in0.0 mm 0.00 in0.0 mm
01:44 AM 43.7°F6.5°C 38.8°F3.8°C 83% 2.9 mph NNW4.7 kmh NNW 4.3 mph6.9 kmh 30.11 in1019.6 mb 0.00 in0.0 mm 0.00 in0.0 mm 0.00 in0.0 mm
01:39 AM 43.9°F6.6°C 39.0°F3.9°C 83% 1.8 mph NNW2.9 kmh NNW 2.7 mph4.3 kmh 30.11 in1019.6 mb 0.00 in0.0 mm 0.00 in0.0 mm 0.00 in0.0 mm
01:34 AM 43.9°F6.6°C 39.0°F3.9°C 83% 1.6 mph SW2.6 kmh SW 3.8 mph6.1 kmh 30.11 in1019.6 mb 0.00 in0.0 mm 0.00 in0.0 mm 0.00 in0.0 mm
01:29 AM 44.4°F6.9°C 39.2°F4.0°C 82% 1.6 mph N2.6 kmh N 3.4 mph5.5 kmh 30.11 in1019.6 mb 0.00 in0.0 mm 0.00 in0.0 mm 0.00 in0.0 mm
01:24 AM 44.4°F6.9°C 39.2°F4.0°C 82% Calm Calm -- 30.11 in1019.6 mb 0.00 in0.0 mm 0.00 in0.0 mm 0.00 in0.0 mm
01:19 AM 44.4°F6.9°C 39.2°F4.0°C 82% Calm Calm -- 30.11 in1019.6 mb 0.00 in0.0 mm 0.00 in0.0 mm 0.00 in0.0 mm
01:14 AM 44.4°F6.9°C 39.2°F4.0°C 82% Calm Calm -- 30.11 in1019.6 mb 0.00 in0.0 mm 0.00 in0.0 mm 0.00 in0.0 mm
01:09 AM 44.6°F7.0°C 39.4°F4.1°C 82% Calm Calm -- 30.11 in1019.6 mb 0.00 in0.0 mm 0.00 in0.0 mm 0.00 in0.0 mm
01:04 AM 44.4°F6.9°C 39.2°F4.0°C 82% Calm Calm -- 30.10 in1019.3 mb 0.00 in0.0 mm 0.00 in0.0 mm 0.00 in0.0 mm
12:59 AM 44.4°F6.9°C 39.2°F4.0°C 82% Calm Calm -- 30.10 in1019.3 mb 0.00 in0.0 mm 0.00 in0.0 mm 0.00 in0.0 mm
12:54 AM 44.4°F6.9°C 39.2°F4.0°C 82% Calm Calm -- 30.11 in1019.6 mb 0.00 in0.0 mm 0.00 in0.0 mm 0.00 in0.0 mm
12:49 AM 44.6°F7.0°C 39.4°F4.1°C 82% Calm Calm -- 30.10 in1019.3 mb 0.00 in0.0 mm 0.00 in0.0 mm 0.00 in0.0 mm
12:44 AM 44.6°F7.0°C 39.4°F4.1°C 82% 0.9 mph SW1.4 kmh SW 1.6 mph2.6 kmh 30.10 in1019.3 mb 0.00 in0.0 mm 0.00 in0.0 mm 0.00 in0.0 mm
12:39 AM 44.6°F7.0°C 39.4°F4.1°C 82% Calm Calm 0.7 mph1.1 kmh 30.10 in1019.3 mb 0.00 in0.0 mm 0.00 in0.0 mm 0.00 in0.0 mm
12:34 AM 44.6°F7.0°C 39.4°F4.1°C 82% 0.2 mph NE0.3 kmh NE 1.1 mph1.8 kmh 30.10 in1019.3 mb 0.00 in0.0 mm 0.00 in0.0 mm 0.00 in0.0 mm
12:29 AM 44.6°F7.0°C 39.4°F4.1°C 82% Calm Calm -- 30.09 in1019.0 mb 0.00 in0.0 mm 0.00 in0.0 mm 0.00 in0.0 mm
12:24 AM 44.8°F7.1°C 39.6°F4.2°C 82% Calm Calm -- 30.09 in1019.0 mb 0.00 in0.0 mm 0.00 in0.0 mm 0.00 in0.0 mm
12:19 AM 45.0°F7.2°C 39.6°F4.2°C 81% 1.1 mph SSW1.8 kmh SSW 1.3 mph2.1 kmh 30.09 in1019.0 mb 0.00 in0.0 mm 0.00 in0.0 mm 0.00 in0.0 mm
12:14 AM 45.0°F7.2°C 39.6°F4.2°C 81% 0.2 mph ENE0.3 kmh ENE 1.1 mph1.8 kmh 30.10 in1019.3 mb 0.00 in0.0 mm 0.00 in0.0 mm 0.00 in0.0 mm
12:09 AM 45.0°F7.2°C 39.6°F4.2°C 81% 1.3 mph NE2.1 kmh NE 1.6 mph2.6 kmh 30.10 in1019.3 mb 0.00 in0.0 mm 0.00 in0.0 mm 0.00 in0.0 mm
12:04 AM 45.0°F7.2°C 39.6°F4.2°C 81% Calm Calm -- 30.10 in1019.3 mb 0.00 in0.0 mm 0.00 in0.0 mm 0.00 in0.0 mm